createdAt,value
2022-11-05T00:03:08.509Z,8
2022-11-05T00:13:08.558Z,7.9
2022-11-05T00:15:46.676Z,7.9
2022-11-05T00:23:16.735Z,7.6
2022-11-05T00:33:17.086Z,7.5
2022-11-05T00:43:17.685Z,7.3
2022-11-05T00:53:18.005Z,7.1
2022-11-05T01:03:18.873Z,6.8
2022-11-05T01:13:20.043Z,6.8
2022-11-05T01:23:20.743Z,6.7
2022-11-05T01:33:21.100Z,6.5
2022-11-05T01:43:21.419Z,6.5
2022-11-05T01:53:22.184Z,6.6
2022-11-05T02:03:22.859Z,6.8
2022-11-05T02:23:24.394Z,6.8
2022-11-05T02:33:24.879Z,6.7
2022-11-05T02:43:25.654Z,6.6
2022-11-05T02:53:26.076Z,6.8
2022-11-05T03:03:26.159Z,6.8
2022-11-05T03:13:26.800Z,6.8
2022-11-05T03:23:27.418Z,6.8
2022-11-05T03:33:27.565Z,6.6
2022-11-05T04:33:31.289Z,6.3
2022-11-05T04:43:31.991Z,6.3
2022-11-05T04:53:32.209Z,6.3
2022-11-05T05:13:33.547Z,6.2
2022-11-05T05:23:33.885Z,6.3
2022-11-05T05:53:35.111Z,6
2022-11-05T06:03:35.586Z,6
2022-11-05T06:13:36.536Z,6.1
2022-11-05T06:23:37.376Z,6.1
2022-11-05T06:53:39.760Z,5.9
2022-11-05T07:03:40.697Z,6
2022-11-05T07:43:43.313Z,6.4
2022-11-05T07:53:45.406Z,6.7
2022-11-05T08:03:44.968Z,7.5
2022-11-05T08:13:45.961Z,7.9
2022-11-05T08:33:47.695Z,8.7
2022-11-05T08:43:48.692Z,8.6
2022-11-05T08:53:48.793Z,8.6
2022-11-05T09:03:48.936Z,8.9
2022-11-05T09:13:49.097Z,9
2022-11-05T09:23:49.999Z,9.3
2022-11-05T09:33:50.865Z,9.6
2022-11-05T09:43:51.417Z,9.7
2022-11-05T09:53:52.342Z,9.9
2022-11-05T10:03:52.541Z,10.1
2022-11-05T10:13:53.564Z,10.4
2022-11-05T10:23:54.185Z,10.4
2022-11-05T10:33:55.203Z,10.6
2022-11-05T10:43:56.020Z,10.9
2022-11-05T10:54:01.519Z,11.2
2022-11-05T11:03:57.303Z,11.3
2022-11-05T11:13:58.027Z,11.4
2022-11-05T11:23:58.118Z,11.3
2022-11-05T11:33:58.206Z,11.3
2022-11-05T12:03:59.514Z,11.7
2022-11-05T12:14:00.066Z,12
2022-11-05T12:24:00.846Z,11.9
2022-11-05T12:34:01.181Z,11.9
2022-11-05T12:44:02.208Z,11.7
2022-11-05T12:54:02.656Z,11.7
2022-11-05T13:04:02.953Z,11.7
2022-11-05T13:14:03.599Z,11.8
2022-11-05T13:24:03.731Z,11.6
2022-11-05T13:34:04.238Z,11.5
2022-11-05T13:44:05.145Z,11.6
2022-11-05T13:54:05.671Z,11.5
2022-11-05T14:04:06.222Z,11.5
2022-11-05T14:14:06.305Z,11.5
2022-11-05T14:24:06.538Z,11.4
2022-11-05T14:34:06.925Z,11.3
2022-11-05T14:44:07.624Z,11.2
2022-11-05T14:54:07.843Z,11.1
2022-11-05T15:04:07.982Z,11.1
2022-11-05T15:14:08.763Z,11
2022-11-05T15:24:09.593Z,10.9
2022-11-05T15:44:10.257Z,10.8
2022-11-05T15:54:29.972Z,10.7
2022-11-05T16:04:10.776Z,10.5
2022-11-05T16:24:12.400Z,10.4
2022-11-05T16:44:13.303Z,10.4
2022-11-05T16:54:14.052Z,10.3
2022-11-05T17:04:15.115Z,10.3
2022-11-05T17:14:15.881Z,10.3
2022-11-05T17:44:17.983Z,10.3
2022-11-05T17:54:18.514Z,10.3
2022-11-05T18:04:18.688Z,10.3
2022-11-05T18:14:23.816Z,10.2
2022-11-05T18:24:20.423Z,10.2
2022-11-05T18:34:21.019Z,10.3
2022-11-05T18:44:21.618Z,10.3
2022-11-05T18:54:22.391Z,10.3
2022-11-05T19:04:22.832Z,10.3
2022-11-05T19:14:23.353Z,10.3
2022-11-05T19:24:23.483Z,10.3
2022-11-05T19:34:24.177Z,10.2
2022-11-05T19:44:25.207Z,10.2
2022-11-05T19:54:26.308Z,10.1
2022-11-05T20:04:26.569Z,10.1
2022-11-05T20:14:26.692Z,10.1
2022-11-05T20:24:27.357Z,10.1
2022-11-05T20:34:27.517Z,10.1
2022-11-05T20:44:28.075Z,10.1
2022-11-05T20:54:29.043Z,10
2022-11-05T21:04:29.748Z,9.9
2022-11-05T21:14:30.340Z,10
2022-11-05T21:24:31.282Z,9.9
2022-11-05T21:34:32.013Z,9.9
2022-11-05T21:44:32.914Z,9.8
2022-11-05T21:54:33.985Z,9.7
2022-11-05T22:04:34.832Z,9.6
2022-11-05T22:14:35.621Z,9.6
2022-11-05T22:24:36.554Z,9.5
2022-11-05T22:34:37.069Z,9.5
2022-11-05T22:44:37.525Z,9.4
2022-11-05T22:54:39.347Z,9.3
2022-11-05T23:04:38.010Z,9.2
2022-11-05T23:14:38.685Z,9.1
2022-11-05T23:24:39.043Z,9
2022-11-05T23:44:39.871Z,9
2022-11-05T23:54:40.596Z,9.1
